Terminal Aerodrome Forecast
Issued by NWS

Home | Current Version | Previous Version | Text Only | Print | Product List | Glossary On
Versions: 1 2 3 4 5 6 7 8 9 10 11 12 13 14 15 16
871
FTPA31 PHFO 200520
TAFHNY
TAF
PHNY 200520Z 2006/2106 06022G33KT P6SM VCSH FEW018 BKN040
     FM200900 05015G25KT P6SM VCSH FEW018 BKN040
     FM201900 04024G33KT P6SM VCSH FEW018 BKN040=

USA.gov is the U.S. government's official web portal to all federal, state and local government web resources and services.